Time;durP1;ratioP1;P1;durP2;ratioP2;P2;SDS_P1;SDS_P2;PMS_P1;PMS_P2;Temp;Humidity;BMP_temperature;BMP_pressure;BME280_temperature;BME280_humidity;BME280_pressure;Samples;Min_cycle;Max_cycle;Signal;HPM_P1;HPM_P2
2023/03/12 00:04:40;;;;;;;9.77;5.18;;;;;;;0.55;55.79;100122.78;10395726;28;20042;-76
2023/03/12 00:09:44;;;;;;;8.05;5.00;;;;;;;0.48;56.48;100117.81;10404320;28;20034;-76
2023/03/12 00:14:48;;;;;;;17.10;6.28;;;;;;;0.39;56.71;100129.66;10394845;28;20034;-77
2023/03/12 00:19:52;;;;;;;10.40;5.40;;;;;;;0.31;56.90;100123.84;10400801;28;20072;-75
2023/03/12 00:24:56;;;;;;;12.10;5.43;;;;;;;0.31;56.78;100122.06;10391924;28;20144;-76
2023/03/12 00:30:00;;;;;;;8.85;5.93;;;;;;;0.36;56.88;100116.59;10390860;28;20041;-76
2023/03/12 00:35:05;;;;;;;11.02;6.28;;;;;;;0.33;57.55;100121.97;10397259;28;20049;-77
2023/03/12 00:40:10;;;;;;;9.57;5.75;;;;;;;0.29;58.01;100110.69;10387091;28;20119;-77
2023/03/12 00:45:14;;;;;;;10.65;5.65;;;;;;;0.21;58.38;100106.66;10376944;28;20042;-76
2023/03/12 00:50:17;;;;;;;10.05;6.20;;;;;;;0.19;58.61;100105.84;10375167;28;20052;-77
2023/03/12 00:55:20;;;;;;;12.07;6.25;;;;;;;0.12;59.27;100099.97;10381075;28;20061;-76
2023/03/12 01:00:25;;;;;;;17.80;10.18;;;;;;;-0.21;61.42;100103.09;10394461;28;20081;-77
2023/03/12 01:05:28;;;;;;;15.38;10.85;;;;;;;-0.54;63.01;100097.41;10413193;28;20507;-76
2023/03/12 01:10:31;;;;;;;21.02;10.57;;;;;;;-0.74;64.44;100095.53;10414431;28;20067;-76
2023/03/12 01:15:36;;;;;;;17.45;10.38;;;;;;;-0.78;65.25;100094.81;10416933;28;20072;-75
2023/03/12 01:20:40;;;;;;;21.92;11.50;;;;;;;-0.72;65.63;100088.41;10415374;28;20038;-77
2023/03/12 01:25:43;;;;;;;20.10;10.20;;;;;;;-0.69;65.64;100090.94;10414555;28;20084;-76
2023/03/12 01:30:47;;;;;;;19.05;9.77;;;;;;;-0.67;65.79;100081.19;10408121;28;20061;-78
2023/03/12 01:35:50;;;;;;;15.30;10.52;;;;;;;-0.70;65.30;100072.56;10415158;28;20038;-76
2023/03/12 01:40:53;;;;;;;14.63;8.95;;;;;;;-0.74;65.44;100075.31;10386881;28;20050;-76
2023/03/12 01:46:21;;;;;;;14.57;8.15;;;;;;;-0.64;64.50;100078.44;10412868;28;20084;-76
2023/03/12 01:51:27;;;;;;;15.52;8.05;;;;;;;-0.57;64.42;100073.78;10391688;28;20072;-76
2023/03/12 01:56:33;;;;;;;12.88;8.07;;;;;;;-0.56;64.34;100062.31;10413539;28;20116;-75
2023/03/12 02:01:38;;;;;;;15.93;8.05;;;;;;;-0.62;64.30;100066.03;10412334;28;20064;-76
2023/03/12 02:06:48;;;;;;;13.13;8.30;;;;;;;-0.57;64.38;100061.44;10410747;28;20115;-76
2023/03/12 02:11:51;;;;;;;20.08;7.63;;;;;;;-0.60;64.43;100055.44;10385756;28;20092;-76
2023/03/12 02:16:56;;;;;;;11.38;7.05;;;;;;;-0.64;64.69;100051.19;10385863;28;20077;-76
2023/03/12 02:21:59;;;;;;;14.05;7.47;;;;;;;-0.69;64.50;100047.88;10407822;28;20068;-76
2023/03/12 02:27:05;;;;;;;17.55;8.30;;;;;;;-0.68;64.61;100052.25;10389873;28;20041;-77
2023/03/12 02:32:15;;;;;;;14.93;8.93;;;;;;;-0.67;64.82;100052.19;10385399;28;20061;-75
2023/03/12 02:37:19;;;;;;;12.60;8.00;;;;;;;-0.59;64.70;100041.31;10377643;28;20071;-76
2023/03/12 02:42:24;;;;;;;11.13;6.32;;;;;;;-0.63;64.70;100045.00;10393268;28;20111;-76
2023/03/12 02:47:27;;;;;;;19.80;9.82;;;;;;;-0.71;64.53;100037.41;10393769;28;20043;-75
2023/03/12 02:52:34;;;;;;;10.75;7.50;;;;;;;-0.74;64.73;100037.50;10387048;28;20042;-75
2023/03/12 02:57:39;;;;;;;12.32;6.68;;;;;;;-0.77;64.56;100037.63;10407279;28;20033;-77
2023/03/12 03:02:46;;;;;;;12.00;6.57;;;;;;;-0.78;64.70;100041.19;10395385;28;20087;-76
2023/03/12 03:07:49;;;;;;;11.32;7.18;;;;;;;-0.80;64.89;100035.13;10388603;28;20038;-75
2023/03/12 03:12:53;;;;;;;15.02;8.07;;;;;;;-0.82;64.70;100039.63;10390710;28;20095;-76
2023/03/12 03:17:57;;;;;;;18.20;8.75;;;;;;;-0.84;65.00;100030.91;10384928;28;20096;-75
2023/03/12 03:23:00;;;;;;;11.68;7.68;;;;;;;-0.84;64.99;100022.97;10394097;28;20100;-76
2023/03/12 03:28:04;;;;;;;20.00;7.90;;;;;;;-0.84;65.57;100020.34;10407744;28;20170;-75
2023/03/12 03:33:07;;;;;;;16.27;7.57;;;;;;;-0.95;65.68;100020.78;10416818;28;20330;-76
2023/03/12 03:38:10;;;;;;;12.55;7.32;;;;;;;-0.85;65.54;100022.13;10411960;28;20518;-76
2023/03/12 03:43:15;;;;;;;12.95;7.88;;;;;;;-0.80;65.79;100014.00;10418056;28;20045;-75
2023/03/12 03:48:18;;;;;;;14.93;7.93;;;;;;;-0.79;65.52;100013.13;10395835;28;20091;-76
2023/03/12 03:53:21;;;;;;;12.38;7.43;;;;;;;-0.75;65.48;100009.41;10399770;28;20049;-76
2023/03/12 03:58:26;;;;;;;10.95;7.40;;;;;;;-0.83;65.46;100001.81;10396105;28;20049;-77
2023/03/12 04:03:29;;;;;;;15.70;6.97;;;;;;;-0.87;65.47;100005.50;10394886;28;20045;-77
2023/03/12 04:08:34;;;;;;;9.07;7.07;;;;;;;-0.82;65.85;100000.91;10396080;28;20049;-77
2023/03/12 04:13:39;;;;;;;17.63;8.40;;;;;;;-0.84;65.48;100000.09;10398897;28;20045;-76
2023/03/12 04:18:43;;;;;;;12.85;7.15;;;;;;;-0.89;65.78;99996.78;10415497;28;20038;-77
2023/03/12 04:23:46;;;;;;;10.50;7.10;;;;;;;-0.91;66.12;99988.06;10398871;28;20095;-77
2023/03/12 04:28:51;;;;;;;11.43;6.97;;;;;;;-0.86;66.05;99978.19;10408448;28;20038;-76
2023/03/12 04:33:54;;;;;;;12.98;6.93;;;;;;;-0.89;66.11;99967.78;10414166;28;20048;-75
2023/03/12 04:38:59;;;;;;;12.27;7.18;;;;;;;-0.92;66.19;99967.06;10390510;28;20076;-77
2023/03/12 04:44:07;;;;;;;10.85;6.57;;;;;;;-0.98;66.12;99966.38;10387575;28;20053;-78
2023/03/12 04:49:14;;;;;;;13.00;6.47;;;;;;;-1.02;66.50;99961.28;10410233;28;20054;-77
2023/03/12 04:54:19;;;;;;;14.40;6.65;;;;;;;-0.94;66.62;99953.91;10424396;23;20055;-76
2023/03/12 04:59:24;;;;;;;12.90;6.18;;;;;;;-0.87;66.17;99960.66;10431856;28;20037;-77
2023/03/12 05:04:28;;;;;;;10.80;6.50;;;;;;;-0.78;66.20;99941.81;10443254;28;20127;-77
2023/03/12 05:09:35;;;;;;;11.07;5.72;;;;;;;-0.67;65.63;99943.16;10443782;28;20111;-76
2023/03/12 05:14:39;;;;;;;13.10;5.72;;;;;;;-0.65;64.69;99946.59;10428817;28;20042;-76
2023/03/12 05:19:43;;;;;;;7.50;4.90;;;;;;;-0.62;64.78;99946.47;10416832;28;20484;-77
2023/03/12 05:24:46;;;;;;;6.32;5.05;;;;;;;-0.48;64.72;99933.56;10416031;28;20083;-77
2023/03/12 05:29:50;;;;;;;14.15;5.30;;;;;;;-0.50;64.69;99923.06;10436375;28;20678;-76
2023/03/12 05:34:55;;;;;;;9.50;5.35;;;;;;;-0.47;65.07;99922.06;10411293;28;20060;-76
2023/03/12 05:39:59;;;;;;;8.98;6.20;;;;;;;-0.49;64.63;99908.09;10439648;28;20098;-76
2023/03/12 05:45:05;;;;;;;13.02;6.50;;;;;;;-0.50;65.39;99906.38;10412766;28;20041;-76
2023/03/12 05:50:10;;;;;;;13.18;6.90;;;;;;;-0.52;65.26;99910.88;10423320;28;20470;-76
2023/03/12 05:55:13;;;;;;;11.60;5.78;;;;;;;-0.45;65.52;99896.47;10424221;28;20148;-77
2023/03/12 06:00:19;;;;;;;9.25;6.10;;;;;;;-0.42;65.52;99875.22;10435246;28;20128;-76
2023/03/12 06:05:30;;;;;;;11.13;6.45;;;;;;;-0.47;65.51;99871.06;10436582;28;20491;-76
2023/03/12 06:10:34;;;;;;;12.98;6.85;;;;;;;-0.49;65.36;99876.44;10410181;28;20049;-77
2023/03/12 06:15:38;;;;;;;12.50;6.57;;;;;;;-0.30;65.27;99873.84;10412931;28;20040;-78
2023/03/12 06:20:42;;;;;;;11.95;7.00;;;;;;;-0.31;65.11;99861.56;10417881;28;20049;-77
2023/03/12 06:25:46;;;;;;;10.20;7.25;;;;;;;-0.25;65.29;99860.44;10419490;28;20110;-77
2023/03/12 06:30:52;;;;;;;13.82;7.20;;;;;;;-0.20;64.82;99850.53;10410962;28;20045;-77
2023/03/12 06:35:56;;;;;;;12.10;7.43;;;;;;;-0.09;64.61;99845.63;10441873;28;20075;-77
2023/03/12 06:41:01;;;;;;;14.80;8.60;;;;;;;-0.03;64.69;99845.31;10434804;28;20075;-76
2023/03/12 06:46:06;;;;;;;15.15;8.43;;;;;;;-0.01;64.72;99832.91;10453577;28;20045;-76
2023/03/12 06:51:11;;;;;;;31.88;17.45;;;;;;;0.44;66.19;99833.47;10439275;28;20038;-77
2023/03/12 06:56:14;;;;;;;15.75;9.18;;;;;;;0.96;64.07;99831.78;10422191;28;20116;-77
2023/03/12 07:01:18;;;;;;;9.45;5.93;;;;;;;1.11;62.50;99824.00;10439039;28;20510;-75
2023/03/12 07:06:22;;;;;;;15.88;6.82;;;;;;;1.67;62.25;99826.38;10427912;28;20046;-77
2023/03/12 07:11:25;;;;;;;10.63;6.15;;;;;;;1.65;59.92;99840.63;10431004;28;20088;-76
2023/03/12 07:16:30;;;;;;;8.05;5.55;;;;;;;1.60;60.31;99834.72;10434395;28;20124;-77
2023/03/12 07:21:33;;;;;;;12.23;6.70;;;;;;;1.36;61.12;99827.09;10425549;28;20059;-75
2023/03/12 07:26:36;;;;;;;9.80;6.00;;;;;;;1.29;61.41;99820.44;10428356;28;20091;-77
2023/03/12 07:31:40;;;;;;;10.82;6.20;;;;;;;1.08;62.06;99827.66;10429993;28;20045;-77
2023/03/12 07:36:43;;;;;;;12.95;6.35;;;;;;;1.28;62.04;99822.19;10432685;28;20498;-77
2023/03/12 07:41:46;;;;;;;9.32;5.50;;;;;;;1.19;61.36;99811.25;10417431;28;20044;-76
2023/03/12 07:46:50;;;;;;;8.93;6.03;;;;;;;1.25;62.13;99811.78;10412266;28;20041;-76
2023/03/12 07:51:53;;;;;;;9.55;6.63;;;;;;;1.33;62.26;99816.69;10414403;28;20534;-76
2023/03/12 07:56:56;;;;;;;10.02;6.18;;;;;;;1.28;62.29;99805.47;10408585;28;20423;-77
2023/03/12 08:02:01;;;;;;;9.75;6.35;;;;;;;1.45;62.63;99796.66;10398019;28;20049;-77
2023/03/12 08:07:04;;;;;;;12.98;5.93;;;;;;;1.62;61.38;99783.41;10413346;28;20146;-75
2023/03/12 08:12:11;;;;;;;9.00;5.93;;;;;;;1.97;60.52;99790.34;10415871;28;21270;-76
2023/03/12 08:17:15;;;;;;;6.93;5.15;;;;;;;1.85;60.67;99782.13;10403293;28;20054;-76
2023/03/12 08:22:18;;;;;;;6.80;5.07;;;;;;;2.05;60.46;99766.94;10405541;28;20061;-77
2023/03/12 08:27:21;;;;;;;11.50;5.53;;;;;;;2.03;60.36;99755.56;10399532;28;20051;-77
2023/03/12 08:32:25;;;;;;;11.27;5.20;;;;;;;2.35;59.90;99759.91;10395147;28;20490;-77
2023/03/12 08:37:29;;;;;;;9.45;4.82;;;;;;;2.57;59.39;99771.97;10402304;28;20054;-77
2023/03/12 08:42:32;;;;;;;6.95;5.30;;;;;;;2.69;59.34;99773.94;10404663;28;21046;-77
2023/03/12 08:47:36;;;;;;;7.45;5.13;;;;;;;2.61;59.08;99770.88;10397717;28;20079;-76
2023/03/12 08:52:39;;;;;;;12.35;5.88;;;;;;;2.68;59.41;99766.06;10404556;28;20048;-76
2023/03/12 08:57:42;;;;;;;7.97;5.45;;;;;;;2.75;59.00;99780.69;10390105;28;20041;-75
2023/03/12 09:02:46;;;;;;;7.90;5.55;;;;;;;2.83;58.83;99781.09;10395882;28;20045;-76
2023/03/12 09:07:49;;;;;;;7.82;4.95;;;;;;;2.68;59.75;99772.22;10410185;28;20111;-76
2023/03/12 09:12:52;;;;;;;17.00;6.50;;;;;;;2.78;60.10;99767.25;10400583;28;20527;-76
2023/03/12 09:17:56;;;;;;;8.90;6.22;;;;;;;2.82;59.83;99759.00;10417695;28;20097;-76
2023/03/12 09:22:59;;;;;;;12.30;5.75;;;;;;;2.78;60.20;99756.63;10418418;28;21484;-74
2023/03/12 09:28:02;;;;;;;11.98;6.30;;;;;;;2.67;61.91;99764.38;10399633;28;20083;-77
2023/03/12 09:33:06;;;;;;;12.32;6.43;;;;;;;2.57;64.26;99761.38;10398889;28;20600;-75
2023/03/12 09:38:13;;;;;;;13.07;6.40;;;;;;;2.62;66.16;99761.97;10398969;28;20048;-74
2023/03/12 09:43:25;;;;;;;11.95;6.68;;;;;;;2.66;66.86;99752.91;10410452;28;20124;-76
2023/03/12 09:48:33;;;;;;;7.55;4.50;;;;;;;2.75;67.43;99755.00;10418285;28;20040;-78
2023/03/12 09:53:45;;;;;;;8.43;4.25;;;;;;;2.65;68.09;99735.25;10397473;28;20444;-77
2023/03/12 09:58:53;;;;;;;5.72;2.78;;;;;;;2.48;69.14;99730.06;10413984;28;20055;-76
2023/03/12 10:04:23;;;;;;;8.32;3.45;;;;;;;2.11;70.42;99743.63;10414625;28;20442;-78
2023/03/12 10:09:39;;;;;;;9.88;2.92;;;;;;;2.17;71.86;99722.06;10410263;28;20045;-77
2023/03/12 10:14:53;;;;;;;5.82;3.35;;;;;;;2.22;72.67;99713.84;10412248;28;20052;-77
2023/03/12 10:20:17;;;;;;;9.35;4.03;;;;;;;2.47;73.09;99697.41;10412122;28;20121;-78
2023/03/12 10:25:27;;;;;;;13.18;4.22;;;;;;;2.53;73.31;99696.19;10408576;28;20057;-78
2023/03/12 10:30:32;;;;;;;7.38;3.00;;;;;;;1.98;73.67;99699.38;10422515;28;21326;-77
2023/03/12 10:35:36;;;;;;;9.10;4.50;;;;;;;1.83;75.22;99688.66;10389943;28;20041;-78
2023/03/12 10:40:40;;;;;;;13.63;4.68;;;;;;;1.83;76.05;99695.75;10379870;28;21499;-74
2023/03/12 10:45:52;;;;;;;13.10;5.55;;;;;;;1.94;77.19;99696.00;10395697;28;20530;-77
2023/03/12 10:51:04;;;;;;;14.68;6.05;;;;;;;2.04;78.02;99702.50;10396940;28;20681;-77
2023/03/12 10:56:09;;;;;;;18.75;6.93;;;;;;;2.05;78.76;99679.50;10394841;28;20037;-76
2023/03/12 11:01:20;;;;;;;7.32;4.78;;;;;;;1.92;78.98;99688.16;10396191;28;20052;-75
2023/03/12 11:06:27;;;;;;;16.73;7.25;;;;;;;1.93;79.60;99692.53;10412236;28;20057;-76
2023/03/12 11:11:37;;;;;;;13.82;8.02;;;;;;;2.06;80.24;99689.19;10410430;28;20049;-77
2023/03/12 11:16:40;;;;;;;17.35;9.27;;;;;;;2.01;81.17;99689.44;10416758;28;20079;-78
2023/03/12 11:21:55;;;;;;;14.43;8.98;;;;;;;2.08;81.75;99653.69;10413992;28;20072;-77
2023/03/12 11:27:05;;;;;;;11.82;9.13;;;;;;;2.21;81.94;99647.69;10413515;28;20064;-79
2023/03/12 11:32:16;;;;;;;14.90;9.82;;;;;;;2.24;82.24;99634.28;10420174;28;20581;-79
2023/03/12 11:37:30;;;;;;;25.20;13.73;;;;;;;2.07;82.84;99652.00;10428559;28;21348;-77
2023/03/12 11:42:49;;;;;;;20.10;11.88;;;;;;;2.10;83.18;99645.66;10422489;28;20206;-78
2023/03/12 11:48:03;;;;;;;15.05;8.75;;;;;;;2.08;83.45;99648.41;10425860;28;20049;-77
2023/03/12 11:53:30;;;;;;;14.77;10.02;;;;;;;1.90;83.72;99644.16;10423331;28;20048;-78
2023/03/12 11:58:49;;;;;;;10.35;7.43;;;;;;;2.10;83.77;99638.56;10395110;28;20051;-77
2023/03/12 12:04:08;;;;;;;12.02;7.88;;;;;;;2.42;84.04;99635.84;10418413;28;20045;-77
2023/03/12 12:09:25;;;;;;;10.40;7.65;;;;;;;2.53;84.04;99620.19;10417050;28;20123;-77
2023/03/12 12:14:48;;;;;;;7.75;6.22;;;;;;;2.42;84.27;99621.75;10422343;28;20037;-78
2023/03/12 12:20:08;;;;;;;7.35;5.63;;;;;;;2.45;84.32;99616.25;10421712;28;21159;-77
2023/03/12 12:25:28;;;;;;;10.90;8.00;;;;;;;2.71;84.85;99583.72;10418891;28;20120;-77
2023/03/12 12:30:48;;;;;;;9.90;7.50;;;;;;;2.74;84.89;99590.66;10413721;28;20060;-77
2023/03/12 12:35:51;;;;;;;12.20;8.00;;;;;;;2.56;85.83;99582.88;10418420;28;20049;-77
2023/03/12 12:41:00;;;;;;;12.98;8.13;;;;;;;2.75;85.74;99587.91;10406675;28;20492;-77
2023/03/12 12:46:06;;;;;;;11.63;6.18;;;;;;;2.64;86.98;99570.97;10406944;28;20081;-77
2023/03/12 12:51:10;;;;;;;7.75;6.78;;;;;;;2.86;86.83;99581.97;10403299;28;20060;-77
2023/03/12 12:56:22;;;;;;;11.68;8.20;;;;;;;3.26;85.61;99569.69;10397094;28;20478;-77
2023/03/12 13:01:26;;;;;;;11.52;7.63;;;;;;;3.25;86.34;99567.13;10397086;28;20049;-76
2023/03/12 13:06:57;;;;;;;11.18;8.02;;;;;;;3.23;86.96;99564.56;10381826;28;20048;-77
2023/03/12 13:12:07;;;;;;;10.38;7.50;;;;;;;3.37;86.87;99560.19;10379779;28;20099;-78
2023/03/12 13:17:23;;;;;;;11.40;8.35;;;;;;;3.44;87.41;99550.88;10403847;28;20411;-78
2023/03/12 13:22:58;;;;;;;12.63;9.95;;;;;;;3.70;87.44;99554.47;10412528;28;20155;-80
2023/03/12 13:28:29;;;;;;;11.63;9.02;;;;;;;3.83;86.87;99539.44;10417487;28;20060;-80
2023/03/12 13:33:43;;;;;;;12.60;10.00;;;;;;;3.70;89.21;99552.69;10420718;28;20920;-80
2023/03/12 13:38:55;;;;;;;14.93;10.20;;;;;;;3.94;89.08;99550.19;10415440;28;21437;-79
2023/03/12 13:44:00;;;;;;;13.23;9.73;;;;;;;4.09;88.21;99545.69;10398938;28;20116;-78
2023/03/12 13:49:09;;;;;;;13.45;9.77;;;;;;;4.43;88.36;99537.22;10393275;28;20055;-80
2023/03/12 13:54:18;;;;;;;14.00;9.52;;;;;;;4.34;89.87;99534.22;10419253;28;20384;-80
2023/03/12 13:59:24;;;;;;;15.50;11.32;;;;;;;4.49;89.82;99531.44;10417408;28;20771;-79
2023/03/12 14:04:33;;;;;;;19.70;13.20;;;;;;;4.66;89.35;99528.47;10399069;28;20056;-77
2023/03/12 14:09:44;;;;;;;19.13;14.40;;;;;;;4.84;89.10;99521.84;10407637;28;21506;-80
2023/03/12 14:15:20;;;;;;;19.98;15.45;;;;;;;4.86;89.11;99513.78;10413249;28;20051;-79
2023/03/12 14:20:24;;;;;;;25.65;18.50;;;;;;;4.73;91.34;99518.25;10406985;28;20049;-79
2023/03/12 14:25:34;;;;;;;22.52;14.93;;;;;;;4.80;91.00;99538.13;10415083;28;20789;-79
2023/03/12 14:30:48;;;;;;;26.92;16.80;;;;;;;4.91;90.17;99553.34;10414970;28;20113;-79
2023/03/12 14:35:56;;;;;;;28.33;18.92;;;;;;;5.38;88.42;99546.47;10405367;28;20511;-80
2023/03/12 14:41:04;;;;;;;29.95;19.98;;;;;;;5.26;88.95;99556.19;10415606;28;20504;-79
2023/03/12 14:46:15;;;;;;;28.80;19.30;;;;;;;5.08;90.54;99555.72;10404608;28;20595;-78
2023/03/12 14:51:23;;;;;;;31.08;20.63;;;;;;;5.37;89.75;99548.28;10414901;28;20051;-80
2023/03/12 14:56:29;;;;;;;37.00;19.85;;;;;;;5.55;88.86;99548.75;10419008;28;21724;-79
2023/03/12 15:01:38;;;;;;;36.20;22.10;;;;;;;5.61;89.77;99537.63;10419292;28;20136;-79
2023/03/12 15:06:45;;;;;;;33.22;19.83;;;;;;;5.37;91.23;99534.09;10402520;28;20095;-79
2023/03/12 15:11:54;;;;;;;23.83;13.88;;;;;;;5.75;89.89;99533.09;10407062;28;20067;-80
2023/03/12 15:16:59;;;;;;;33.03;20.30;;;;;;;5.83;90.20;99533.38;10413283;28;20045;-78
2023/03/12 15:22:04;;;;;;;32.45;18.00;;;;;;;5.79;91.72;99530.09;10410461;28;20089;-78
2023/03/12 15:27:30;;;;;;;37.33;20.23;;;;;;;5.99;90.64;99515.28;10408671;28;20162;-77
2023/03/12 15:32:34;;;;;;;39.97;20.48;;;;;;;6.16;90.60;99511.31;10401505;28;20041;-77
2023/03/12 15:37:39;;;;;;;42.17;23.58;;;;;;;5.98;92.86;99504.72;10408986;28;20118;-78
2023/03/12 15:42:45;;;;;;;48.58;25.38;;;;;;;6.14;92.78;99507.91;10406639;28;20053;-77
2023/03/12 15:47:52;;;;;;;47.65;24.98;;;;;;;6.33;91.70;99512.69;10418150;28;20049;-77
2023/03/12 15:53:01;;;;;;;52.85;27.42;;;;;;;6.46;91.87;99512.59;10412882;28;20084;-77
2023/03/12 15:58:25;;;;;;;46.40;22.08;;;;;;;6.54;91.05;99515.50;10412335;28;20131;-78
2023/03/12 16:03:29;;;;;;;46.97;24.08;;;;;;;6.67;90.00;99515.41;10414957;28;20068;-79
2023/03/12 16:08:38;;;;;;;48.70;25.27;;;;;;;6.91;89.57;99512.63;10406312;28;20053;-78
2023/03/12 16:13:42;;;;;;;43.15;23.45;;;;;;;6.98;89.03;99511.19;10419924;28;20095;-79
2023/03/12 16:18:46;;;;;;;47.30;24.63;;;;;;;6.88;90.15;99511.06;10426122;28;20065;-76
2023/03/12 16:23:49;;;;;;;53.17;27.35;;;;;;;7.06;89.32;99508.75;10410223;28;21839;-77
2023/03/12 16:28:52;;;;;;;49.53;24.40;;;;;;;7.02;88.78;99504.63;10411446;28;20051;-78
2023/03/12 16:33:56;;;;;;;39.50;22.88;;;;;;;7.20;88.08;99504.97;10420147;28;20266;-79
2023/03/12 16:38:59;;;;;;;39.83;21.75;;;;;;;7.06;87.75;99506.94;10414481;28;20044;-77
2023/03/12 16:44:03;;;;;;;42.78;23.25;;;;;;;7.12;88.06;99508.25;10420426;28;20045;-79
2023/03/12 16:49:11;;;;;;;40.47;20.48;;;;;;;6.98;88.77;99522.72;10410020;28;20530;-77
2023/03/12 16:54:14;;;;;;;43.78;21.48;;;;;;;7.07;88.50;99521.13;10420161;28;20056;-79
2023/03/12 16:59:24;;;;;;;35.75;21.10;;;;;;;7.00;88.40;99514.59;10422933;28;20123;-79
2023/03/12 17:04:28;;;;;;;38.75;20.50;;;;;;;6.97;88.21;99537.03;10412983;28;20503;-79
2023/03/12 17:09:31;;;;;;;44.92;20.75;;;;;;;7.12;87.20;99534.13;10422388;28;20862;-79
2023/03/12 17:14:34;;;;;;;36.50;20.00;;;;;;;7.16;87.27;99538.22;10415125;28;20098;-77
2023/03/12 17:19:38;;;;;;;41.05;18.55;;;;;;;6.92;87.95;99530.38;10412685;28;20044;-78
2023/03/12 17:24:41;;;;;;;40.00;17.10;;;;;;;6.88;87.34;99534.25;10418582;28;20125;-79
2023/03/12 17:29:44;;;;;;;35.83;15.00;;;;;;;7.14;85.92;99537.53;10407867;28;20073;-79
2023/03/12 17:34:54;;;;;;;32.42;12.60;;;;;;;7.10;85.74;99534.22;10404783;28;20055;-78
2023/03/12 17:40:00;;;;;;;33.30;12.98;;;;;;;7.21;84.72;99536.03;10414892;28;20084;-79
2023/03/12 17:45:04;;;;;;;27.60;11.75;;;;;;;7.35;84.18;99542.94;10411218;28;20404;-77
2023/03/12 17:50:09;;;;;;;35.28;13.82;;;;;;;7.21;84.39;99541.38;10413547;28;20831;-77
2023/03/12 17:55:12;;;;;;;32.05;11.52;;;;;;;7.30;83.47;99539.81;10418011;28;20041;-78
2023/03/12 18:00:16;;;;;;;31.63;12.88;;;;;;;7.34;83.53;99552.78;10415523;28;20046;-76
2023/03/12 18:05:20;;;;;;;36.53;11.63;;;;;;;7.33;83.41;99559.09;10419055;28;20118;-77
2023/03/12 18:10:23;;;;;;;31.67;10.05;;;;;;;7.21;84.01;99570.75;10409873;28;20045;-77
2023/03/12 18:15:26;;;;;;;34.50;11.48;;;;;;;7.21;83.69;99581.44;10404270;28;20111;-77
2023/03/12 18:20:30;;;;;;;32.83;11.15;;;;;;;7.18;83.21;99587.88;10410306;28;20074;-77
2023/03/12 18:25:41;;;;;;;29.88;10.88;;;;;;;7.35;82.98;99583.88;10402353;28;20045;-76
2023/03/12 18:30:45;;;;;;;37.50;11.07;;;;;;;7.50;82.62;99584.47;10404450;28;20192;-77
2023/03/12 18:35:49;;;;;;;35.38;11.88;;;;;;;7.42;82.73;99574.38;10407694;28;20504;-77
2023/03/12 18:41:03;;;;;;;37.15;11.07;;;;;;;7.39;82.91;99573.78;10410511;28;20056;-76
2023/03/12 18:46:07;;;;;;;38.60;12.07;;;;;;;7.54;82.68;99572.53;10413464;28;20052;-77
2023/03/12 18:51:11;;;;;;;39.97;12.88;;;;;;;7.36;83.34;99574.03;10408073;28;20052;-77
2023/03/12 18:56:14;;;;;;;39.78;14.20;;;;;;;7.49;82.73;99569.41;10408163;28;20045;-77
2023/03/12 19:01:17;;;;;;;36.60;12.52;;;;;;;7.51;82.42;99580.78;10415586;28;20697;-78
2023/03/12 19:06:21;;;;;;;31.17;13.02;;;;;;;7.39;83.24;99579.97;10420467;28;20052;-77
2023/03/12 19:11:25;;;;;;;39.92;13.73;;;;;;;7.46;82.61;99580.31;10410787;28;20124;-77
2023/03/12 19:16:28;;;;;;;38.42;12.43;;;;;;;7.64;82.15;99591.34;10425006;28;20090;-79
2023/03/12 19:21:32;;;;;;;34.50;14.45;;;;;;;7.72;82.09;99564.84;10414410;28;20053;-78
2023/03/12 19:26:35;;;;;;;47.00;14.77;;;;;;;7.75;82.40;99558.41;10415998;28;20048;-78
2023/03/12 19:31:38;;;;;;;40.38;15.55;;;;;;;7.80;82.31;99554.38;10413626;28;20060;-79
2023/03/12 19:36:42;;;;;;;42.13;15.25;;;;;;;7.77;82.76;99545.75;10410929;28;20150;-76
2023/03/12 19:41:45;;;;;;;45.05;16.65;;;;;;;7.70;83.30;99543.56;10411263;28;20049;-74
2023/03/12 19:46:47;;;;;;;42.63;15.70;;;;;;;7.69;83.31;99543.72;10413044;28;20049;-77
2023/03/12 19:51:52;;;;;;;38.90;13.18;;;;;;;7.70;82.46;99540.06;10412923;28;20049;-79
2023/03/12 19:56:54;;;;;;;41.20;14.00;;;;;;;7.62;82.25;99543.34;10424508;28;20059;-78
2023/03/12 20:01:59;;;;;;;48.00;12.02;;;;;;;7.48;81.65;99532.94;10418139;28;20045;-77
2023/03/12 20:07:03;;;;;;;36.22;12.05;;;;;;;7.50;81.06;99545.22;10423475;28;20457;-77
2023/03/12 20:12:06;;;;;;;54.28;13.48;;;;;;;7.53;80.90;99551.28;10416495;28;20079;-77
2023/03/12 20:17:10;;;;;;;39.80;12.55;;;;;;;7.85;79.57;99546.81;10410310;28;20045;-77
2023/03/12 20:22:15;;;;;;;34.05;10.20;;;;;;;7.62;79.27;99548.69;10412894;28;20049;-78
2023/03/12 20:27:18;;;;;;;31.08;6.95;;;;;;;7.47;78.23;99558.84;10411650;28;20141;-77
2023/03/12 20:32:21;;;;;;;31.38;7.47;;;;;;;7.75;77.70;99539.69;10390320;28;20088;-77
2023/03/12 20:37:25;;;;;;;29.40;5.25;;;;;;;7.72;76.50;99549.66;10402839;28;20068;-77
2023/03/12 20:42:27;;;;;;;30.17;5.72;;;;;;;7.85;75.74;99540.63;10410812;28;20182;-77
2023/03/12 20:47:33;;;;;;;27.85;5.28;;;;;;;7.75;75.73;99542.38;10410312;28;20076;-76
2023/03/12 20:52:37;;;;;;;46.30;6.70;;;;;;;7.71;75.71;99529.25;10400464;28;20038;-77
2023/03/12 20:57:40;;;;;;;33.30;6.15;;;;;;;7.85;75.31;99522.75;10401371;28;20669;-77
2023/03/12 21:02:43;;;;;;;27.95;5.63;;;;;;;7.98;75.15;99530.63;10414504;28;20048;-76
2023/03/12 21:07:47;;;;;;;44.80;6.15;;;;;;;7.80;74.93;99521.44;10414195;28;20045;-77
2023/03/12 21:12:50;;;;;;;23.83;5.65;;;;;;;7.92;74.68;99515.06;10407728;28;20114;-78
2023/03/12 21:17:53;;;;;;;22.83;3.38;;;;;;;7.88;74.14;99508.28;10402464;28;20143;-77
2023/03/12 21:22:57;;;;;;;26.65;4.80;;;;;;;7.76;74.59;99510.13;10409297;28;20651;-77
2023/03/12 21:28:00;;;;;;;27.17;4.35;;;;;;;7.58;74.81;99504.50;10406844;28;20045;-77
2023/03/12 21:33:03;;;;;;;29.35;5.63;;;;;;;7.81;74.61;99499.06;10411258;28;20060;-77
2023/03/12 21:38:07;;;;;;;19.55;5.65;;;;;;;7.62;75.09;99499.75;10392732;28;21612;-76
2023/03/12 21:43:10;;;;;;;30.45;5.00;;;;;;;7.89;74.54;99493.94;10399404;28;20632;-77
2023/03/12 21:48:13;;;;;;;26.98;6.13;;;;;;;7.65;74.66;99488.78;10401953;28;21306;-77
2023/03/12 21:53:17;;;;;;;19.63;3.78;;;;;;;7.53;74.97;99485.31;10393826;28;20056;-77
2023/03/12 21:58:27;;;;;;;27.50;5.75;;;;;;;7.80;75.06;99476.84;10408641;28;20049;-77
2023/03/12 22:03:30;;;;;;;26.55;4.75;;;;;;;8.06;74.80;99466.59;10411186;28;20111;-77
2023/03/12 22:08:35;;;;;;;17.60;4.40;;;;;;;7.88;74.73;99469.03;10410025;28;20732;-77
2023/03/12 22:13:38;;;;;;;31.48;5.45;;;;;;;7.95;74.89;99459.50;10407930;28;20048;-77
2023/03/12 22:18:42;;;;;;;22.35;3.70;;;;;;;7.78;74.32;99451.22;10408623;28;20045;-77
2023/03/12 22:23:49;;;;;;;18.52;3.97;;;;;;;8.09;74.86;99436.94;10427068;28;20651;-77
2023/03/12 22:28:54;;;;;;;21.25;4.78;;;;;;;8.22;73.96;99428.69;10456542;28;20045;-77
2023/03/12 22:33:57;;;;;;;26.80;4.15;;;;;;;8.05;74.07;99435.50;10448892;28;20040;-76
2023/03/12 22:39:01;;;;;;;26.98;5.47;;;;;;;8.31;74.21;99424.34;10442316;28;20057;-78
2023/03/12 22:44:06;;;;;;;19.25;3.97;;;;;;;8.13;73.70;99413.44;10447366;28;20041;-77
2023/03/12 22:49:09;;;;;;;30.15;5.47;;;;;;;8.17;73.93;99413.06;10442054;28;20103;-78
2023/03/12 22:54:13;;;;;;;20.45;4.43;;;;;;;8.22;73.25;99406.44;10423070;28;20068;-78
2023/03/12 22:59:15;;;;;;;26.75;5.13;;;;;;;8.36;73.21;99400.72;10438024;28;20069;-77
2023/03/12 23:04:18;;;;;;;22.15;5.03;;;;;;;8.15;73.42;99390.94;10423161;28;20080;-77
2023/03/12 23:09:22;;;;;;;33.28;6.07;;;;;;;8.10;73.06;99381.63;10433917;28;20048;-78
2023/03/12 23:14:25;;;;;;;31.50;5.45;;;;;;;8.32;72.80;99370.72;10438350;28;20069;-78
2023/03/12 23:19:31;;;;;;;20.25;4.20;;;;;;;8.13;72.89;99373.31;10423972;28;20079;-77
2023/03/12 23:24:36;;;;;;;15.60;4.00;;;;;;;8.27;73.10;99364.94;10444942;28;20038;-78
2023/03/12 23:29:38;;;;;;;21.60;4.28;;;;;;;8.17;72.72;99351.53;10445412;28;20049;-78
2023/03/12 23:34:41;;;;;;;23.95;4.28;;;;;;;8.25;72.07;99339.28;10447262;28;20041;-78